createdAt,value
2018-07-28T00:01:16.377Z,10.60
2018-07-28T00:03:45.876Z,8.93
2018-07-28T00:06:20.770Z,12.17
2018-07-28T00:08:56.292Z,10.03
2018-07-28T00:11:31.395Z,10.53
2018-07-28T00:14:08.213Z,10.17
2018-07-28T00:16:37.666Z,9.30
2018-07-28T00:19:12.852Z,9.67
2018-07-28T00:21:48.142Z,11.77
2018-07-28T00:24:23.393Z,10.13
2018-07-28T00:26:58.439Z,10.57
2018-07-28T00:29:33.481Z,10.40
2018-07-28T00:32:08.378Z,9.93
2018-07-28T00:34:43.948Z,10.97
2018-07-28T00:37:18.951Z,10.87
2018-07-28T00:39:57.484Z,14.00
2018-07-28T00:42:32.651Z,13.10
2018-07-28T00:45:08.150Z,9.43
2018-07-28T00:47:43.191Z,15.50
2018-07-28T00:50:18.010Z,10.90
2018-07-28T00:52:47.495Z,10.50
2018-07-28T00:55:22.346Z,20.27
2018-07-28T00:57:57.228Z,14.63
2018-07-28T01:00:32.701Z,11.40
2018-07-28T01:03:07.670Z,13.03
2018-07-28T01:05:42.582Z,12.20
2018-07-28T01:08:18.167Z,10.40
2018-07-28T01:10:53.151Z,11.73
2018-07-28T01:13:28.822Z,11.00
2018-07-28T01:16:04.372Z,11.33
2018-07-28T01:18:36.029Z,11.80
2018-07-28T01:21:10.843Z,11.23
2018-07-28T01:23:46.072Z,16.80
2018-07-28T01:26:15.273Z,11.33
2018-07-28T01:29:22.042Z,11.07
2018-07-28T01:31:57.473Z,10.40
2018-07-28T01:34:26.645Z,10.90
2018-07-28T01:37:01.466Z,10.63
2018-07-28T01:39:36.388Z,10.60
2018-07-28T01:42:11.574Z,11.63
2018-07-28T01:44:47.323Z,11.93
2018-07-28T01:47:21.978Z,14.10
2018-07-28T01:49:56.869Z,11.87
2018-07-28T01:52:32.363Z,11.80
2018-07-28T01:55:08.634Z,11.63
2018-07-28T01:57:43.634Z,11.13
2018-07-28T02:00:18.700Z,10.63
2018-07-28T02:02:53.641Z,13.43
2018-07-28T02:05:28.923Z,13.73
2018-07-28T02:08:04.722Z,10.70
2018-07-28T02:10:40.058Z,11.93
2018-07-28T02:13:15.038Z,12.07
2018-07-28T02:15:50.253Z,11.30
2018-07-28T02:18:25.034Z,10.23
2018-07-28T02:21:00.599Z,11.63
2018-07-28T02:23:35.119Z,11.47
2018-07-28T02:26:10.420Z,12.90
2018-07-28T02:28:45.346Z,12.70
2018-07-28T02:31:20.594Z,12.10
2018-07-28T02:33:55.944Z,11.80
2018-07-28T02:36:31.127Z,11.53
2018-07-28T02:39:10.454Z,11.30
2018-07-28T02:41:45.296Z,13.20
2018-07-28T02:44:20.442Z,12.30
2018-07-28T02:46:50.904Z,12.33
2018-07-28T02:49:25.717Z,23.53
2018-07-28T02:52:00.704Z,26.00
2018-07-28T02:54:35.659Z,14.20
2018-07-28T02:57:10.433Z,25.93
2018-07-28T02:59:45.345Z,24.40
2018-07-28T03:02:20.244Z,18.70
2018-07-28T03:04:55.684Z,12.70
2018-07-28T03:07:30.755Z,16.90
2018-07-28T03:10:06.456Z,21.30
2018-07-28T03:12:40.996Z,15.57
2018-07-28T03:15:32.048Z,15.77
2018-07-28T03:18:08.207Z,22.30
2018-07-28T03:20:43.083Z,17.90
2018-07-28T03:23:18.471Z,17.63
2018-07-28T03:25:53.515Z,17.07
2018-07-28T03:28:28.609Z,18.60
2018-07-28T03:30:58.830Z,17.23
2018-07-28T03:33:33.781Z,19.23
2018-07-28T03:36:08.614Z,17.07
2018-07-28T03:38:43.603Z,13.33
2018-07-28T03:41:18.399Z,13.40
2018-07-28T03:43:53.347Z,17.53
2018-07-28T03:46:28.362Z,12.87
2018-07-28T03:49:03.542Z,12.30
2018-07-28T03:51:38.413Z,14.20
2018-07-28T03:54:13.419Z,11.10
2018-07-28T03:56:48.440Z,12.50
2018-07-28T03:59:23.251Z,15.23
2018-07-28T04:01:58.151Z,14.13
2018-07-28T04:04:33.206Z,13.17
2018-07-28T04:07:08.186Z,15.43
2018-07-28T04:09:43.655Z,20.03
2018-07-28T04:12:18.479Z,12.00
2018-07-28T04:14:53.951Z,14.07
2018-07-28T04:17:29.291Z,10.50
2018-07-28T04:20:04.171Z,17.27
2018-07-28T04:22:39.411Z,20.57
2018-07-28T04:25:14.894Z,13.77
2018-07-28T04:27:50.296Z,18.33
2018-07-28T04:30:19.718Z,15.17
2018-07-28T04:32:54.624Z,11.57
2018-07-28T04:35:29.529Z,16.97
2018-07-28T04:38:04.926Z,13.33
2018-07-28T04:40:39.837Z,19.43
2018-07-28T04:43:14.943Z,18.77
2018-07-28T04:45:49.979Z,11.83
2018-07-28T04:48:25.207Z,12.43
2018-07-28T04:51:00.274Z,15.27
2018-07-28T04:53:36.957Z,12.50
2018-07-28T04:56:11.977Z,12.67
2018-07-28T04:58:46.921Z,16.27
2018-07-28T05:01:21.953Z,14.17
2018-07-28T05:03:56.847Z,11.50
2018-07-28T05:06:32.313Z,12.03
2018-07-28T05:09:09.548Z,12.87
2018-07-28T05:11:44.642Z,19.60
2018-07-28T05:14:19.748Z,17.30
2018-07-28T05:16:54.927Z,13.07
2018-07-28T05:19:24.381Z,11.30
2018-07-28T05:22:00.125Z,12.47
2018-07-28T05:24:35.230Z,11.27
2018-07-28T05:27:09.971Z,11.67
2018-07-28T05:29:39.667Z,13.87
2018-07-28T05:32:14.753Z,15.83
2018-07-28T05:34:50.018Z,15.30
2018-07-28T05:37:24.845Z,12.23
2018-07-28T05:40:00.577Z,12.17
2018-07-28T05:42:36.076Z,12.40
2018-07-28T05:45:10.860Z,10.67
2018-07-28T05:47:46.270Z,16.20
2018-07-28T05:50:21.394Z,18.30
2018-07-28T05:52:56.390Z,11.67
2018-07-28T05:55:31.448Z,9.30
2018-07-28T05:58:00.949Z,13.40
2018-07-28T06:00:36.464Z,13.43
2018-07-28T06:03:11.614Z,12.20
2018-07-28T06:05:46.960Z,11.87
2018-07-28T06:08:21.978Z,20.67
2018-07-28T06:10:57.144Z,13.07
2018-07-28T06:13:31.831Z,15.50
2018-07-28T06:16:01.348Z,20.53
2018-07-28T06:18:36.197Z,11.73
2018-07-28T06:21:11.416Z,36.93
2018-07-28T06:23:46.371Z,18.67
2018-07-28T06:26:21.430Z,24.70
2018-07-28T06:28:57.937Z,12.87
2018-07-28T06:31:32.964Z,14.93
2018-07-28T06:34:07.806Z,20.97
2018-07-28T06:36:42.951Z,17.40
2018-07-28T06:39:18.114Z,15.40
2018-07-28T06:41:47.504Z,12.67
2018-07-28T06:44:22.548Z,15.20
2018-07-28T06:46:59.024Z,18.10
2018-07-28T06:49:34.012Z,13.63
2018-07-28T06:52:09.104Z,15.43
2018-07-28T06:54:44.135Z,11.40
2018-07-28T06:57:17.710Z,17.10
2018-07-28T06:59:55.512Z,19.17
2018-07-28T07:02:33.558Z,12.07
2018-07-28T07:05:09.098Z,14.07
2018-07-28T07:07:44.067Z,15.30
2018-07-28T07:10:15.556Z,13.53
2018-07-28T07:12:51.003Z,16.53
2018-07-28T07:15:26.207Z,17.00
2018-07-28T07:18:01.628Z,15.10
2018-07-28T07:20:37.066Z,17.10
2018-07-28T07:23:12.063Z,15.53
2018-07-28T07:25:47.193Z,13.00
2018-07-28T07:28:22.276Z,15.53
2018-07-28T07:30:57.642Z,17.23
2018-07-28T07:33:32.577Z,15.27
2018-07-28T07:36:08.301Z,18.30
2018-07-28T07:38:44.934Z,13.97
2018-07-28T07:41:20.105Z,19.70
2018-07-28T07:43:55.651Z,15.07
2018-07-28T07:46:31.371Z,17.43
2018-07-28T07:49:06.635Z,15.20
2018-07-28T07:51:36.083Z,21.93
2018-07-28T07:54:11.063Z,23.90
2018-07-28T07:56:45.993Z,18.00
2018-07-28T07:59:21.088Z,14.43
2018-07-28T08:01:56.143Z,15.60
2018-07-28T08:04:31.167Z,15.97
2018-07-28T08:07:06.383Z,14.00
2018-07-28T08:09:41.784Z,12.57
2018-07-28T08:12:16.768Z,22.20
2018-07-28T08:14:51.762Z,16.13
2018-07-28T08:17:26.997Z,15.10
2018-07-28T08:20:02.335Z,11.93
2018-07-28T08:22:37.850Z,11.33
2018-07-28T08:25:13.003Z,12.77
2018-07-28T08:27:47.870Z,12.07
2018-07-28T08:30:23.400Z,12.10
2018-07-28T08:32:58.409Z,15.03
2018-07-28T08:35:34.052Z,24.73
2018-07-28T08:38:09.111Z,20.63
2018-07-28T08:40:44.403Z,18.60
2018-07-28T08:43:19.208Z,14.10
2018-07-28T08:45:54.287Z,13.67
2018-07-28T08:48:29.302Z,15.10
2018-07-28T08:51:04.748Z,15.67
2018-07-28T08:53:40.318Z,12.57
2018-07-28T08:56:15.409Z,15.03
2018-07-28T08:58:50.470Z,13.13
2018-07-28T09:01:26.027Z,11.80
2018-07-28T09:04:01.432Z,11.03
2018-07-28T09:06:36.858Z,12.63
2018-07-28T09:09:11.961Z,14.53
2018-07-28T09:11:49.260Z,15.07
2018-07-28T09:14:24.464Z,15.77
2018-07-28T09:16:59.588Z,19.00
2018-07-28T09:19:34.572Z,16.67
2018-07-28T09:22:10.848Z,17.17
2018-07-28T09:24:46.543Z,15.20
2018-07-28T09:27:16.111Z,15.83
2018-07-28T09:29:51.089Z,14.70
2018-07-28T09:32:26.705Z,12.83
2018-07-28T09:35:01.776Z,9.27
2018-07-28T09:37:36.686Z,12.50
2018-07-28T09:40:13.719Z,14.63
2018-07-28T09:42:52.270Z,10.40
2018-07-28T09:45:27.399Z,13.60
2018-07-28T09:48:02.895Z,12.67
2018-07-28T09:50:38.431Z,13.40
2018-07-28T09:53:13.351Z,8.60
2018-07-28T09:55:48.189Z,12.13
2018-07-28T09:58:23.003Z,15.63
2018-07-28T10:00:59.380Z,13.17
2018-07-28T10:03:34.310Z,13.50
2018-07-28T10:06:09.658Z,19.83
2018-07-28T10:08:44.700Z,13.47
2018-07-28T10:11:22.867Z,11.57
2018-07-28T10:13:57.895Z,12.47
2018-07-28T10:16:32.798Z,13.30
2018-07-28T10:19:07.852Z,14.67
2018-07-28T10:21:42.807Z,14.43
2018-07-28T10:24:17.658Z,14.50
2018-07-28T10:26:52.743Z,9.90
2018-07-28T10:29:34.437Z,11.57
2018-07-28T10:32:09.344Z,13.30
2018-07-28T10:34:45.171Z,15.27
2018-07-28T10:37:19.984Z,13.27
2018-07-28T10:39:55.175Z,11.40
2018-07-28T10:42:29.842Z,18.73
2018-07-28T10:45:05.302Z,9.47
2018-07-28T10:47:40.756Z,8.80
2018-07-28T10:50:21.211Z,10.53
2018-07-28T10:52:50.713Z,10.27
2018-07-28T10:55:26.006Z,10.13
2018-07-28T10:58:01.102Z,9.10
2018-07-28T11:00:37.468Z,11.73
2018-07-28T11:03:15.177Z,10.00
2018-07-28T11:05:50.920Z,9.80
2018-07-28T11:08:25.642Z,10.03
2018-07-28T11:11:00.713Z,11.23
2018-07-28T11:13:35.480Z,11.17
2018-07-28T11:16:11.078Z,10.77
2018-07-28T11:18:41.725Z,13.20
2018-07-28T11:21:12.292Z,12.37
2018-07-28T11:23:56.398Z,12.10
2018-07-28T11:26:25.744Z,13.40
2018-07-28T11:28:55.715Z,13.03
2018-07-28T11:31:36.791Z,13.87
2018-07-28T11:34:17.391Z,11.87
2018-07-28T11:36:57.935Z,11.33
2018-07-28T11:39:38.448Z,12.63
2018-07-28T11:42:18.864Z,18.63
2018-07-28T11:45:10.018Z,14.23
2018-07-28T11:47:44.995Z,12.03
2018-07-28T11:50:20.106Z,11.20
2018-07-28T11:52:54.947Z,14.03
2018-07-28T11:55:30.000Z,10.20
2018-07-28T11:58:05.446Z,10.30
2018-07-28T12:00:40.640Z,9.83
2018-07-28T12:03:15.580Z,10.00
2018-07-28T12:05:51.552Z,13.13
2018-07-28T12:08:26.617Z,10.47
2018-07-28T12:11:07.022Z,10.83
2018-07-28T12:13:41.856Z,10.57
2018-07-28T12:16:16.587Z,10.50
2018-07-28T12:18:51.711Z,11.47
2018-07-28T12:21:26.814Z,10.37
2018-07-28T12:24:01.865Z,10.10
2018-07-28T12:26:37.213Z,11.10
2018-07-28T12:29:12.067Z,8.93
2018-07-28T12:31:46.888Z,10.47
2018-07-28T12:34:27.079Z,9.23
2018-07-28T12:37:02.075Z,9.77
2018-07-28T12:39:37.098Z,15.50
2018-07-28T12:42:12.706Z,8.37
2018-07-28T12:44:50.795Z,8.90
2018-07-28T12:47:25.915Z,8.47
2018-07-28T12:50:00.756Z,8.90
2018-07-28T12:52:35.852Z,9.20
2018-07-28T12:55:10.820Z,8.50
2018-07-28T12:57:45.998Z,9.30
2018-07-28T13:00:20.933Z,9.67
2018-07-28T13:02:56.602Z,9.40
2018-07-28T13:05:31.645Z,10.03
2018-07-28T13:08:06.698Z,9.60
2018-07-28T13:10:41.615Z,9.20
2018-07-28T13:13:17.289Z,8.07
2018-07-28T13:15:52.339Z,7.93
2018-07-28T13:18:27.538Z,7.33
2018-07-28T13:21:02.472Z,6.90
2018-07-28T13:23:38.583Z,6.80
2018-07-28T13:26:13.662Z,8.53
2018-07-28T13:28:48.531Z,6.60
2018-07-28T13:31:23.226Z,7.80
2018-07-28T13:33:58.926Z,7.70
2018-07-28T13:36:34.112Z,7.27
2018-07-28T13:39:09.450Z,6.80
2018-07-28T13:41:44.749Z,6.27
2018-07-28T13:44:19.648Z,9.00
2018-07-28T13:46:55.083Z,8.33
2018-07-28T13:49:30.099Z,6.57
2018-07-28T13:52:05.213Z,7.33
2018-07-28T13:54:40.432Z,7.43
2018-07-28T13:57:15.586Z,10.47
2018-07-28T13:59:50.620Z,6.60
2018-07-28T14:02:26.079Z,7.00
2018-07-28T14:05:01.126Z,7.07
2018-07-28T14:07:36.033Z,6.30
2018-07-28T14:10:11.230Z,12.90
2018-07-28T14:12:45.837Z,6.30
2018-07-28T14:15:20.885Z,8.83
2018-07-28T14:17:56.155Z,8.13
2018-07-28T14:20:31.386Z,7.20
2018-07-28T14:23:06.566Z,7.00
2018-07-28T14:25:42.020Z,7.00
2018-07-28T14:28:17.140Z,6.37
2018-07-28T14:30:52.677Z,6.73
2018-07-28T14:33:27.556Z,6.80
2018-07-28T14:36:02.824Z,6.77
2018-07-28T14:38:38.139Z,6.33
2018-07-28T14:41:13.172Z,10.80
2018-07-28T14:43:43.072Z,6.60
2018-07-28T14:46:18.533Z,7.47
2018-07-28T14:48:53.437Z,13.03
2018-07-28T14:51:35.085Z,7.33
2018-07-28T14:54:10.070Z,12.47
2018-07-28T14:56:45.012Z,9.63
2018-07-28T14:59:20.457Z,8.30
2018-07-28T15:01:55.825Z,6.47
2018-07-28T15:04:30.835Z,6.97
2018-07-28T15:07:06.101Z,9.13
2018-07-28T15:09:41.200Z,6.53
2018-07-28T15:12:16.403Z,7.63
2018-07-28T15:14:51.414Z,7.10
2018-07-28T15:17:26.201Z,6.90
2018-07-28T15:20:01.406Z,7.20
2018-07-28T15:22:36.519Z,7.40
2018-07-28T15:25:11.954Z,7.13
2018-07-28T15:27:46.935Z,6.70
2018-07-28T15:30:21.770Z,8.83
2018-07-28T15:32:56.541Z,7.00
2018-07-28T15:35:31.613Z,5.77
2018-07-28T15:38:06.634Z,6.00
2018-07-28T15:40:41.846Z,5.80
2018-07-28T15:43:16.543Z,5.07
2018-07-28T15:45:51.781Z,5.33
2018-07-28T15:48:26.322Z,5.23
2018-07-28T15:51:02.394Z,5.80
2018-07-28T15:53:37.695Z,4.63
2018-07-28T15:56:13.014Z,5.23
2018-07-28T15:58:47.843Z,4.63
2018-07-28T16:01:22.321Z,4.20
2018-07-28T16:03:57.242Z,4.20
2018-07-28T16:06:32.159Z,4.60
2018-07-28T16:09:09.139Z,4.57
2018-07-28T16:11:44.851Z,4.83
2018-07-28T16:14:20.045Z,4.47
2018-07-28T16:16:55.139Z,7.50
2018-07-28T16:19:30.072Z,4.53
2018-07-28T16:21:59.308Z,3.93
2018-07-28T16:24:34.146Z,4.33
2018-07-28T16:27:09.273Z,4.90
2018-07-28T16:29:44.094Z,4.87
2018-07-28T16:32:19.163Z,4.83
2018-07-28T16:34:53.851Z,4.37
2018-07-28T16:37:28.824Z,12.03
2018-07-28T16:40:04.223Z,4.67
2018-07-28T16:42:39.499Z,4.37
2018-07-28T16:45:14.540Z,4.83
2018-07-28T16:47:49.645Z,11.70
2018-07-28T16:50:25.390Z,5.83
2018-07-28T16:53:00.256Z,6.50
2018-07-28T16:55:38.475Z,7.30
2018-07-28T16:58:13.388Z,7.33
2018-07-28T17:00:42.924Z,4.90
2018-07-28T17:03:17.670Z,5.57
2018-07-28T17:05:52.930Z,7.33
2018-07-28T17:08:28.318Z,8.30
2018-07-28T17:11:04.178Z,9.37
2018-07-28T17:13:39.166Z,5.03
2018-07-28T17:16:14.597Z,7.73
2018-07-28T17:18:49.862Z,11.30
2018-07-28T17:21:25.281Z,12.73
2018-07-28T17:24:00.319Z,7.90
2018-07-28T17:26:35.416Z,7.60
2018-07-28T17:29:10.569Z,6.93
2018-07-28T17:31:39.681Z,8.50
2018-07-28T17:34:15.015Z,4.27
2018-07-28T17:36:50.204Z,5.37
2018-07-28T17:39:25.012Z,4.73
2018-07-28T17:42:00.118Z,4.03
2018-07-28T17:44:34.736Z,6.60
2018-07-28T17:47:09.812Z,4.90
2018-07-28T17:49:44.877Z,4.13
2018-07-28T17:52:20.523Z,3.60
2018-07-28T17:54:56.458Z,6.90
2018-07-28T17:57:31.754Z,4.00
2018-07-28T18:00:08.189Z,4.03
2018-07-28T18:02:43.379Z,4.30
2018-07-28T18:05:18.002Z,5.23
2018-07-28T18:07:52.940Z,4.50
2018-07-28T18:10:28.181Z,4.80
2018-07-28T18:13:03.842Z,4.40
2018-07-28T18:15:39.117Z,6.43
2018-07-28T18:18:14.407Z,5.10
2018-07-28T18:20:49.574Z,5.30
2018-07-28T18:23:24.483Z,6.53
2018-07-28T18:25:59.679Z,5.53
2018-07-28T18:28:34.688Z,5.40
2018-07-28T18:31:14.959Z,8.47
2018-07-28T18:33:50.334Z,5.90
2018-07-28T18:36:25.339Z,6.93
2018-07-28T18:39:00.765Z,6.90
2018-07-28T18:41:36.135Z,7.23
2018-07-28T18:44:11.498Z,7.73
2018-07-28T18:46:46.305Z,8.80
2018-07-28T18:49:21.429Z,5.50
2018-07-28T18:51:56.506Z,8.33
2018-07-28T18:54:31.348Z,6.03
2018-07-28T18:57:06.550Z,13.03
2018-07-28T18:59:41.072Z,6.33
2018-07-28T19:02:16.541Z,6.63
2018-07-28T19:04:52.158Z,10.47
2018-07-28T19:07:27.184Z,9.63
2018-07-28T19:10:02.486Z,9.63
2018-07-28T19:12:42.336Z,9.17
2018-07-28T19:15:17.788Z,7.40
2018-07-28T19:17:58.593Z,7.13
2018-07-28T19:20:33.886Z,5.53
2018-07-28T19:23:14.462Z,9.20
2018-07-28T19:25:49.597Z,7.70
2018-07-28T19:28:29.730Z,8.20
2018-07-28T19:31:05.215Z,10.20
2018-07-28T19:33:40.236Z,9.10
2018-07-28T19:36:20.639Z,7.13
2018-07-28T19:38:55.984Z,9.40
2018-07-28T19:41:35.100Z,10.37
2018-07-28T19:44:11.125Z,13.13
2018-07-28T19:46:46.216Z,6.40
2018-07-28T19:49:28.610Z,11.07
2018-07-28T19:52:04.149Z,7.30
2018-07-28T19:54:39.187Z,7.47
2018-07-28T19:57:15.264Z,11.80
2018-07-28T19:59:50.552Z,15.47
2018-07-28T20:02:25.622Z,7.20
2018-07-28T20:05:00.769Z,11.40
2018-07-28T20:07:35.965Z,6.33
2018-07-28T20:10:05.588Z,8.80
2018-07-28T20:12:41.213Z,8.30
2018-07-28T20:15:16.832Z,9.17
2018-07-28T20:17:52.085Z,9.93
2018-07-28T20:20:26.987Z,7.23
2018-07-28T20:23:02.303Z,13.47
2018-07-28T20:25:37.761Z,8.00
2018-07-28T20:28:12.908Z,10.60
2018-07-28T20:30:47.940Z,7.83
2018-07-28T20:33:23.173Z,8.27
2018-07-28T20:35:58.296Z,8.40
2018-07-28T20:38:33.588Z,11.03
2018-07-28T20:41:03.977Z,8.07
2018-07-28T20:43:38.784Z,8.20
2018-07-28T20:46:14.034Z,13.33
2018-07-28T20:48:48.947Z,9.63
2018-07-28T20:51:23.983Z,8.47
2018-07-28T20:53:59.388Z,6.30
2018-07-28T20:56:34.787Z,6.60
2018-07-28T20:59:09.681Z,9.93
2018-07-28T21:01:44.710Z,6.67
2018-07-28T21:04:19.733Z,10.83
2018-07-28T21:06:55.597Z,5.73
2018-07-28T21:09:30.733Z,10.70
2018-07-28T21:12:05.734Z,7.47
2018-07-28T21:14:40.792Z,6.67
2018-07-28T21:17:15.707Z,6.07
2018-07-28T21:19:50.488Z,9.77
2018-07-28T21:22:25.320Z,9.23
2018-07-28T21:25:00.544Z,7.70
2018-07-28T21:27:35.513Z,8.33
2018-07-28T21:30:10.982Z,11.90
2018-07-28T21:32:46.245Z,8.03
2018-07-28T21:35:21.666Z,7.40
2018-07-28T21:37:56.682Z,8.70
2018-07-28T21:40:31.872Z,7.40
2018-07-28T21:43:06.214Z,7.37
2018-07-28T21:45:41.418Z,7.73
2018-07-28T21:48:16.329Z,7.20
2018-07-28T21:50:51.255Z,8.70
2018-07-28T21:53:26.394Z,9.50
2018-07-28T21:56:01.290Z,10.80
2018-07-28T21:58:36.660Z,13.40
2018-07-28T22:01:16.567Z,11.53
2018-07-28T22:03:51.444Z,9.63
2018-07-28T22:06:26.576Z,10.77
2018-07-28T22:09:01.575Z,9.23
2018-07-28T22:11:36.660Z,9.53
2018-07-28T22:14:11.766Z,8.80
2018-07-28T22:16:47.015Z,9.40
2018-07-28T22:19:22.165Z,12.00
2018-07-28T22:21:57.246Z,8.73
2018-07-28T22:24:32.570Z,9.37
2018-07-28T22:27:07.863Z,8.67
2018-07-28T22:29:43.074Z,12.30
2018-07-28T22:32:18.040Z,11.87
2018-07-28T22:34:53.062Z,10.10
2018-07-28T22:37:27.998Z,9.97
2018-07-28T22:40:03.416Z,10.00
2018-07-28T22:42:47.360Z,9.80
2018-07-28T22:45:22.226Z,7.20
2018-07-28T22:47:57.496Z,15.50
2018-07-28T22:50:32.451Z,12.87
2018-07-28T22:53:08.462Z,10.93
2018-07-28T22:55:44.170Z,13.43
2018-07-28T22:58:19.295Z,8.20
2018-07-28T23:00:54.210Z,11.20
2018-07-28T23:03:28.992Z,12.27
2018-07-28T23:06:04.483Z,9.30
2018-07-28T23:08:33.743Z,6.07
2018-07-28T23:11:08.978Z,11.73
2018-07-28T23:13:43.510Z,8.53
2018-07-28T23:16:18.162Z,10.80
2018-07-28T23:18:53.882Z,9.80
2018-07-28T23:21:29.123Z,8.67
2018-07-28T23:23:58.568Z,11.20
2018-07-28T23:26:34.061Z,15.10
2018-07-28T23:29:08.875Z,8.20
2018-07-28T23:31:43.905Z,8.97
2018-07-28T23:34:18.761Z,9.70
2018-07-28T23:36:48.147Z,18.73
2018-07-28T23:39:23.252Z,8.10
2018-07-28T23:41:58.231Z,13.13
2018-07-28T23:44:32.999Z,10.27
2018-07-28T23:47:08.091Z,11.87
2018-07-28T23:49:43.422Z,11.63
2018-07-28T23:52:18.278Z,10.40
2018-07-28T23:54:53.388Z,8.93
2018-07-28T23:57:28.323Z,14.33
